createdAt,value
2019-03-17T00:00:35.873Z,47.22
2019-03-17T00:01:35.862Z,46.92
2019-03-17T00:02:35.859Z,46.62
2019-03-17T00:03:36.127Z,47.42
2019-03-17T00:04:35.828Z,47.22
2019-03-17T00:05:35.890Z,46.81
2019-03-17T00:06:35.811Z,47.31
2019-03-17T00:07:35.826Z,47.31
2019-03-17T00:08:35.822Z,47.61
2019-03-17T00:09:35.778Z,46.62
2019-03-17T00:10:35.794Z,47.42
2019-03-17T00:11:35.763Z,47.42
2019-03-17T00:12:35.749Z,46.72
2019-03-17T00:13:35.783Z,47.14
2019-03-17T00:14:35.754Z,47.24
2019-03-17T00:15:35.762Z,47.54
2019-03-17T00:16:35.758Z,47.34
2019-03-17T00:17:35.706Z,47.14
2019-03-17T00:18:35.698Z,47.66
2019-03-17T00:19:35.678Z,47.54
2019-03-17T00:20:35.698Z,47.76
2019-03-17T00:21:35.660Z,48.16
2019-03-17T00:22:35.673Z,48.07
2019-03-17T00:23:35.643Z,48.16
2019-03-17T00:24:35.670Z,48.26
2019-03-17T00:25:35.615Z,48.46
2019-03-17T00:26:35.598Z,48.79
2019-03-17T00:27:35.655Z,48.46
2019-03-17T00:28:35.576Z,48.28
2019-03-17T00:29:35.688Z,48.76
2019-03-17T00:30:35.650Z,48.69
2019-03-17T00:31:35.548Z,48.38
2019-03-17T00:32:35.551Z,48.58
2019-03-17T00:33:36.640Z,48.58
2019-03-17T00:34:44.090Z,48.28
2019-03-17T00:35:36.507Z,48.99
2019-03-17T00:36:35.504Z,49.08
2019-03-17T00:37:35.508Z,48.99
2019-03-17T00:38:35.536Z,48.89
2019-03-17T00:39:35.540Z,49.01
2019-03-17T00:40:35.496Z,48.79
2019-03-17T00:41:35.447Z,48.89
2019-03-17T00:42:35.430Z,48.89
2019-03-17T00:43:35.429Z,49.11
2019-03-17T00:44:35.471Z,49.11
2019-03-17T00:45:35.401Z,48.91
2019-03-17T00:46:35.470Z,49.08
2019-03-17T00:47:35.454Z,48.89
2019-03-17T00:48:35.368Z,49.01
2019-03-17T00:49:35.480Z,49.01
2019-03-17T00:50:35.345Z,49.21
2019-03-17T00:51:35.341Z,48.91
2019-03-17T00:52:35.456Z,49.11
2019-03-17T00:53:35.312Z,49.29
2019-03-17T00:54:35.317Z,49.01
2019-03-17T00:55:35.306Z,49.21
2019-03-17T00:56:35.284Z,48.81
2019-03-17T00:57:35.290Z,49.01
2019-03-17T00:58:35.303Z,48.79
2019-03-17T00:59:35.288Z,49.19
2019-03-17T01:00:35.270Z,49.19
2019-03-17T01:01:35.243Z,48.99
2019-03-17T01:02:35.334Z,48.99
2019-03-17T01:03:35.220Z,48.99
2019-03-17T01:04:35.209Z,48.99
2019-03-17T01:05:35.233Z,48.89
2019-03-17T01:06:35.173Z,48.89
2019-03-17T01:07:35.193Z,48.99
2019-03-17T01:08:35.155Z,48.58
2019-03-17T01:09:35.143Z,48.69
2019-03-17T01:10:35.163Z,48.99
2019-03-17T01:11:35.196Z,48.89
2019-03-17T01:12:35.141Z,49.08
2019-03-17T01:13:35.155Z,48.58
2019-03-17T01:14:35.082Z,48.58
2019-03-17T01:15:35.074Z,48.19
2019-03-17T01:16:35.082Z,48.69
2019-03-17T01:17:35.122Z,48.19
2019-03-17T01:18:35.046Z,48.49
2019-03-17T01:19:35.084Z,48.99
2019-03-17T01:20:35.020Z,48.79
2019-03-17T01:21:35.115Z,48.69
2019-03-17T01:22:35.003Z,48.28
2019-03-17T01:23:34.993Z,48.58
2019-03-17T01:24:34.980Z,48.49
2019-03-17T01:25:35.045Z,48.49
2019-03-17T01:26:35.025Z,48.99
2019-03-17T01:27:34.943Z,48.58
2019-03-17T01:28:34.944Z,48.79
2019-03-17T01:29:34.936Z,49.08
2019-03-17T01:30:34.991Z,48.79
2019-03-17T01:31:34.909Z,48.89
2019-03-17T01:32:34.914Z,48.89
2019-03-17T01:33:34.885Z,49.11
2019-03-17T01:34:34.872Z,49.01
2019-03-17T01:35:34.874Z,48.91
2019-03-17T01:36:34.904Z,49.61
2019-03-17T01:37:34.855Z,50.21
2019-03-17T01:38:34.908Z,50.01
2019-03-17T01:39:34.909Z,49.01
2019-03-17T01:40:34.819Z,49.43
2019-03-17T01:41:34.797Z,50.24
2019-03-17T01:42:34.830Z,50.24
2019-03-17T01:43:34.793Z,49.93
2019-03-17T01:44:34.764Z,49.54
2019-03-17T01:45:34.771Z,49.63
2019-03-17T01:46:34.747Z,49.54
2019-03-17T01:47:34.933Z,49.33
2019-03-17T01:48:34.722Z,49.74
2019-03-17T01:49:34.714Z,49.26
2019-03-17T01:50:34.721Z,49.36
2019-03-17T01:51:34.697Z,49.56
2019-03-17T01:52:34.699Z,50.13
2019-03-17T01:53:34.669Z,49.86
2019-03-17T01:54:34.654Z,49.86
2019-03-17T01:55:34.665Z,49.76
2019-03-17T01:56:34.650Z,50.16
2019-03-17T01:57:34.633Z,49.96
2019-03-17T01:58:34.663Z,50.06
2019-03-17T01:59:34.633Z,50.16
2019-03-17T02:00:34.590Z,50.46
2019-03-17T02:01:34.585Z,50.26
2019-03-17T02:02:34.574Z,50.36
2019-03-17T02:03:34.565Z,50.36
2019-03-17T02:04:34.625Z,50.46
2019-03-17T02:05:34.538Z,50.36
2019-03-17T02:06:34.544Z,50.56
2019-03-17T02:07:34.522Z,50.46
2019-03-17T02:08:34.514Z,50.36
2019-03-17T02:09:34.532Z,50.36
2019-03-17T02:10:34.499Z,50.36
2019-03-17T02:11:34.544Z,50.36
2019-03-17T02:12:34.465Z,50.36
2019-03-17T02:13:34.475Z,50.36
2019-03-17T02:14:34.486Z,50.76
2019-03-17T02:15:34.464Z,50.48
2019-03-17T02:16:34.420Z,50.79
2019-03-17T02:17:34.407Z,50.48
2019-03-17T02:18:34.420Z,50.59
2019-03-17T02:19:34.409Z,50.59
2019-03-17T02:20:34.377Z,50.68
2019-03-17T02:21:34.390Z,50.29
2019-03-17T02:22:34.366Z,50.68
2019-03-17T02:23:34.347Z,50.29
2019-03-17T02:24:34.330Z,50.18
2019-03-17T02:25:34.320Z,50.79
2019-03-17T02:26:34.338Z,50.89
2019-03-17T02:27:34.338Z,50.48
2019-03-17T02:28:34.290Z,50.68
2019-03-17T02:29:34.292Z,51.19
2019-03-17T02:30:34.316Z,50.99
2019-03-17T02:31:34.309Z,50.99
2019-03-17T02:32:34.247Z,50.89
2019-03-17T02:33:34.234Z,50.79
2019-03-17T02:34:34.231Z,50.99
2019-03-17T02:35:39.707Z,50.66
2019-03-17T02:36:35.228Z,50.29
2019-03-17T02:37:34.203Z,50.29
2019-03-17T02:38:34.454Z,51.19
2019-03-17T02:39:34.254Z,50.16
2019-03-17T02:40:34.165Z,50.38
2019-03-17T02:41:34.166Z,50.38
2019-03-17T02:42:34.146Z,50.48
2019-03-17T02:43:34.384Z,50.38
2019-03-17T02:44:34.134Z,50.89
2019-03-17T02:45:34.135Z,50.16
2019-03-17T02:46:34.163Z,50.99
2019-03-17T02:47:34.101Z,50.29
2019-03-17T02:48:34.219Z,50.38
2019-03-17T02:49:34.081Z,50.99
2019-03-17T02:50:34.054Z,50.48
2019-03-17T02:51:34.189Z,50.99
2019-03-17T02:52:34.061Z,51.09
2019-03-17T02:53:34.037Z,50.79
2019-03-17T02:54:34.033Z,50.38
2019-03-17T02:55:34.028Z,50.29
2019-03-17T02:56:33.997Z,50.38
2019-03-17T02:57:33.989Z,50.26
2019-03-17T02:58:34.005Z,50.79
2019-03-17T02:59:33.979Z,50.89
2019-03-17T03:00:33.975Z,50.68
2019-03-17T03:01:33.962Z,50.59
2019-03-17T03:02:33.944Z,50.68
2019-03-17T03:03:33.967Z,50.68
2019-03-17T03:04:33.942Z,50.68
2019-03-17T03:05:33.914Z,50.59
2019-03-17T03:06:33.886Z,50.48
2019-03-17T03:07:33.892Z,50.79
2019-03-17T03:08:33.927Z,50.59
2019-03-17T03:09:33.935Z,50.79
2019-03-17T03:10:33.872Z,50.48
2019-03-17T03:11:33.860Z,50.59
2019-03-17T03:12:33.836Z,50.59
2019-03-17T03:13:33.829Z,50.59
2019-03-17T03:14:33.824Z,50.89
2019-03-17T03:15:33.817Z,50.99
2019-03-17T03:16:33.799Z,50.89
2019-03-17T03:17:33.778Z,50.89
2019-03-17T03:18:33.773Z,50.68
2019-03-17T03:19:33.769Z,50.99
2019-03-17T03:20:33.769Z,50.71
2019-03-17T03:21:33.744Z,50.89
2019-03-17T03:22:33.722Z,50.68
2019-03-17T03:23:33.775Z,50.89
2019-03-17T03:24:33.694Z,50.68
2019-03-17T03:25:33.753Z,50.71
2019-03-17T03:26:33.704Z,50.71
2019-03-17T03:27:33.744Z,50.81
2019-03-17T03:28:33.679Z,51.11
2019-03-17T03:29:33.662Z,50.91
2019-03-17T03:30:33.633Z,51.21
2019-03-17T03:31:33.665Z,51.51
2019-03-17T03:32:33.638Z,51.11
2019-03-17T03:33:33.626Z,51.49
2019-03-17T03:34:33.595Z,51.51
2019-03-17T03:35:33.642Z,51.81
2019-03-17T03:36:33.581Z,51.72
2019-03-17T03:37:33.577Z,51.11
2019-03-17T03:38:33.574Z,51.51
2019-03-17T03:39:33.626Z,51.42
2019-03-17T03:40:33.553Z,51.61
2019-03-17T03:41:33.517Z,51.72
2019-03-17T03:42:33.612Z,51.61
2019-03-17T03:43:33.646Z,51.92
2019-03-17T03:44:33.494Z,51.21
2019-03-17T03:45:33.474Z,51.21
2019-03-17T03:46:33.466Z,51.21
2019-03-17T03:47:33.450Z,51.42
2019-03-17T03:48:33.476Z,51.21
2019-03-17T03:49:33.421Z,51.31
2019-03-17T03:50:33.440Z,51.42
2019-03-17T03:51:33.412Z,51.21
2019-03-17T03:52:33.417Z,51.31
2019-03-17T03:53:33.460Z,51.42
2019-03-17T03:54:33.367Z,51.51
2019-03-17T03:55:33.371Z,51.51
2019-03-17T03:56:33.373Z,51.31
2019-03-17T03:57:33.366Z,51.31
2019-03-17T03:58:33.333Z,51.51
2019-03-17T03:59:33.413Z,51.51
2019-03-17T04:00:33.307Z,51.61
2019-03-17T04:01:33.321Z,51.21
2019-03-17T04:02:33.296Z,51.61
2019-03-17T04:03:33.296Z,51.31
2019-03-17T04:04:33.269Z,51.51
2019-03-17T04:05:33.270Z,51.61
2019-03-17T04:06:33.327Z,51.44
2019-03-17T04:07:33.242Z,51.51
2019-03-17T04:08:33.275Z,51.51
2019-03-17T04:09:33.222Z,51.42
2019-03-17T04:10:33.206Z,51.42
2019-03-17T04:11:33.234Z,51.42
2019-03-17T04:12:33.270Z,51.31
2019-03-17T04:13:33.161Z,51.51
2019-03-17T04:14:33.199Z,51.31
2019-03-17T04:15:33.161Z,51.09
2019-03-17T04:16:33.200Z,50.89
2019-03-17T04:17:33.144Z,50.48
2019-03-17T04:18:33.110Z,50.18
2019-03-17T04:19:33.105Z,50.59
2019-03-17T04:20:33.091Z,50.36
2019-03-17T04:21:33.196Z,49.96
2019-03-17T04:22:33.080Z,49.23
2019-03-17T04:23:33.065Z,49.54
2019-03-17T04:24:33.136Z,49.31
2019-03-17T04:25:33.207Z,49.01
2019-03-17T04:26:33.065Z,48.99
2019-03-17T04:27:33.019Z,48.79
2019-03-17T04:28:33.000Z,48.16
2019-03-17T04:29:33.079Z,48.16
2019-03-17T04:30:32.980Z,47.34
2019-03-17T04:31:33.008Z,47.24
2019-03-17T04:32:32.967Z,47.02
2019-03-17T04:33:32.974Z,46.72
2019-03-17T04:34:32.981Z,46.31
2019-03-17T04:35:32.935Z,45.89
2019-03-17T04:36:40.015Z,45.17
2019-03-17T04:37:34.054Z,45.45
2019-03-17T04:38:32.999Z,45.55
2019-03-17T04:39:32.890Z,45.43
2019-03-17T04:40:32.919Z,44.93
2019-03-17T04:41:32.860Z,44.83
2019-03-17T04:42:32.879Z,44.51
2019-03-17T04:43:32.842Z,43.51
2019-03-17T04:44:32.876Z,43.49
2019-03-17T04:45:32.859Z,43.59
2019-03-17T04:46:32.816Z,43.69
2019-03-17T04:47:32.820Z,43.07
2019-03-17T04:48:32.802Z,43.07
2019-03-17T04:49:32.780Z,43.37
2019-03-17T04:50:32.763Z,42.85
2019-03-17T04:51:32.779Z,42.55
2019-03-17T04:52:32.783Z,42.75
2019-03-17T04:53:32.757Z,42.43
2019-03-17T04:54:32.732Z,42.13
2019-03-17T04:55:32.735Z,41.53
2019-03-17T04:56:32.782Z,41.83
2019-03-17T04:57:32.721Z,42.13
2019-03-17T04:58:32.728Z,42.11
2019-03-17T04:59:32.688Z,42.31
2019-03-17T05:00:32.673Z,41.52
2019-03-17T05:01:32.664Z,41.52
2019-03-17T05:02:32.726Z,41.42
2019-03-17T05:03:32.631Z,40.82
2019-03-17T05:04:32.642Z,40.92
2019-03-17T05:05:32.648Z,41.39
2019-03-17T05:06:32.598Z,41.39
2019-03-17T05:07:32.585Z,41.20
2019-03-17T05:08:32.739Z,41.20
2019-03-17T05:09:32.570Z,41.39
2019-03-17T05:10:32.567Z,41.39
2019-03-17T05:11:32.620Z,41.09
2019-03-17T05:12:32.538Z,41.60
2019-03-17T05:13:32.546Z,41.30
2019-03-17T05:14:32.523Z,41.60
2019-03-17T05:15:32.503Z,41.00
2019-03-17T05:16:32.510Z,41.17
2019-03-17T05:17:32.491Z,41.17
2019-03-17T05:18:32.627Z,41.50
2019-03-17T05:19:32.462Z,41.08
2019-03-17T05:20:32.471Z,41.39
2019-03-17T05:21:32.459Z,41.20
2019-03-17T05:22:32.486Z,40.98
2019-03-17T05:23:32.529Z,41.47
2019-03-17T05:24:32.418Z,41.38
2019-03-17T05:25:32.411Z,41.28
2019-03-17T05:26:32.415Z,41.17
2019-03-17T05:27:32.373Z,40.78
2019-03-17T05:28:32.376Z,40.98
2019-03-17T05:29:32.375Z,41.08
2019-03-17T05:30:32.349Z,41.08
2019-03-17T05:31:32.385Z,41.38
2019-03-17T05:32:32.336Z,41.28
2019-03-17T05:33:32.320Z,41.17
2019-03-17T05:34:32.407Z,41.28
2019-03-17T05:35:32.307Z,40.88
2019-03-17T05:36:32.278Z,41.08
2019-03-17T05:37:32.271Z,41.08
2019-03-17T05:38:32.300Z,41.38
2019-03-17T05:39:32.259Z,40.70
2019-03-17T05:40:32.250Z,40.80
2019-03-17T05:41:32.252Z,40.78
2019-03-17T05:42:32.228Z,41.00
2019-03-17T05:43:32.232Z,40.88
2019-03-17T05:44:32.226Z,40.90
2019-03-17T05:45:32.187Z,40.90
2019-03-17T05:46:32.237Z,40.80
2019-03-17T05:47:32.168Z,40.90
2019-03-17T05:48:32.171Z,40.80
2019-03-17T05:49:32.229Z,41.09
2019-03-17T05:50:32.208Z,41.50
2019-03-17T05:51:32.142Z,41.30
2019-03-17T05:52:32.252Z,41.50
2019-03-17T05:53:32.126Z,41.20
2019-03-17T05:54:32.098Z,41.09
2019-03-17T05:55:32.175Z,41.30
2019-03-17T05:56:32.065Z,41.60
2019-03-17T05:57:32.070Z,41.50
2019-03-17T05:58:32.053Z,41.50
2019-03-17T05:59:32.057Z,41.39
2019-03-17T06:00:32.031Z,41.39
2019-03-17T06:01:32.050Z,41.50
2019-03-17T06:02:32.007Z,41.22
2019-03-17T06:03:32.250Z,41.12
2019-03-17T06:04:32.045Z,41.12
2019-03-17T06:05:32.037Z,41.31
2019-03-17T06:06:31.965Z,41.22
2019-03-17T06:07:31.961Z,40.62
2019-03-17T06:08:33.707Z,41.12
2019-03-17T06:09:31.927Z,41.42
2019-03-17T06:10:31.926Z,41.31
2019-03-17T06:11:31.915Z,41.12
2019-03-17T06:12:31.910Z,41.42
2019-03-17T06:13:31.962Z,41.42
2019-03-17T06:14:31.918Z,41.31
2019-03-17T06:15:31.873Z,41.31
2019-03-17T06:16:31.876Z,41.71
2019-03-17T06:17:31.891Z,41.44
2019-03-17T06:18:31.872Z,41.53
2019-03-17T06:19:32.003Z,41.74
2019-03-17T06:20:31.838Z,42.13
2019-03-17T06:21:31.803Z,41.74
2019-03-17T06:22:31.793Z,42.43
2019-03-17T06:23:31.808Z,42.23
2019-03-17T06:24:31.774Z,41.83
2019-03-17T06:25:31.803Z,41.75
2019-03-17T06:26:31.768Z,41.63
2019-03-17T06:27:31.740Z,41.36
2019-03-17T06:28:31.744Z,41.66
2019-03-17T06:29:31.724Z,41.46
2019-03-17T06:30:31.746Z,42.45
2019-03-17T06:31:31.722Z,42.25
2019-03-17T06:32:31.697Z,42.35
2019-03-17T06:33:31.678Z,42.65
2019-03-17T06:34:31.665Z,42.65
2019-03-17T06:35:31.687Z,42.35
2019-03-17T06:36:31.681Z,42.75
2019-03-17T06:37:31.627Z,42.65
2019-03-17T06:38:31.628Z,42.75
2019-03-17T06:39:31.610Z,42.75
2019-03-17T06:40:31.653Z,42.65
2019-03-17T06:41:31.634Z,42.57
2019-03-17T06:42:31.594Z,42.75
2019-03-17T06:43:31.565Z,43.17
2019-03-17T06:44:31.560Z,43.17
2019-03-17T06:45:31.581Z,43.27
2019-03-17T06:46:31.540Z,43.47
2019-03-17T06:47:31.543Z,42.87
2019-03-17T06:48:31.597Z,42.69
2019-03-17T06:49:31.729Z,43.17
2019-03-17T06:50:31.513Z,43.57
2019-03-17T06:51:31.485Z,43.47
2019-03-17T06:52:31.480Z,43.07
2019-03-17T06:53:31.460Z,43.17
2019-03-17T06:54:31.576Z,43.19
2019-03-17T06:55:31.436Z,43.09
2019-03-17T06:56:31.457Z,42.89
2019-03-17T06:57:31.414Z,43.69
2019-03-17T06:58:31.424Z,43.39
2019-03-17T06:59:31.451Z,43.69
2019-03-17T07:00:31.401Z,43.09
2019-03-17T07:01:31.380Z,43.69
2019-03-17T07:02:31.371Z,43.79
2019-03-17T07:03:31.374Z,43.69
2019-03-17T07:04:31.443Z,43.71
2019-03-17T07:05:31.331Z,43.49
2019-03-17T07:06:31.376Z,43.91
2019-03-17T07:07:42.887Z,43.41
2019-03-17T07:08:32.348Z,44.01
2019-03-17T07:09:31.315Z,43.61
2019-03-17T07:10:31.278Z,43.39
2019-03-17T07:11:31.304Z,43.31
2019-03-17T07:12:31.277Z,43.81
2019-03-17T07:13:31.256Z,43.61
2019-03-17T07:14:31.279Z,43.51
2019-03-17T07:15:31.248Z,43.41
2019-03-17T07:16:31.226Z,43.51
2019-03-17T07:17:31.239Z,43.81
2019-03-17T07:18:31.244Z,43.93
2019-03-17T07:19:31.187Z,44.21
2019-03-17T07:20:31.179Z,44.21
2019-03-17T07:21:31.196Z,44.23
2019-03-17T07:22:31.150Z,44.23
2019-03-17T07:23:34.094Z,44.53
2019-03-17T07:24:31.144Z,43.83
2019-03-17T07:25:31.124Z,44.63
2019-03-17T07:26:31.107Z,44.93
2019-03-17T07:27:31.306Z,44.63
2019-03-17T07:28:31.108Z,44.85
2019-03-17T07:29:31.156Z,44.93
2019-03-17T07:30:31.066Z,45.15
2019-03-17T07:31:31.056Z,45.15
2019-03-17T07:32:31.123Z,45.25
2019-03-17T07:33:31.052Z,45.27
2019-03-17T07:34:31.076Z,45.17
2019-03-17T07:35:31.035Z,45.67
2019-03-17T07:36:31.000Z,46.17
2019-03-17T07:37:31.006Z,46.07
2019-03-17T07:38:31.084Z,46.09
2019-03-17T07:39:30.988Z,46.99
2019-03-17T07:40:30.976Z,46.80
2019-03-17T07:41:31.024Z,47.11
2019-03-17T07:42:32.584Z,46.42
2019-03-17T07:43:30.980Z,46.92
2019-03-17T07:44:30.990Z,47.02
2019-03-17T07:45:31.038Z,47.34
2019-03-17T07:46:30.964Z,47.31
2019-03-17T07:47:30.883Z,47.02
2019-03-17T07:48:30.875Z,46.74
2019-03-17T07:49:30.876Z,47.24
2019-03-17T07:50:30.854Z,47.54
2019-03-17T07:51:30.877Z,47.34
2019-03-17T07:52:30.878Z,47.64
2019-03-17T07:53:30.861Z,47.64
2019-03-17T07:54:30.833Z,47.44
2019-03-17T07:55:30.879Z,48.14
2019-03-17T07:56:30.849Z,47.86
2019-03-17T07:57:30.780Z,48.07
2019-03-17T07:58:30.793Z,48.16
2019-03-17T07:59:30.773Z,47.86
2019-03-17T08:00:32.044Z,48.36
2019-03-17T08:01:30.753Z,48.36
2019-03-17T08:02:30.737Z,48.36
2019-03-17T08:03:30.759Z,48.16
2019-03-17T08:04:42.027Z,48.26
2019-03-17T08:05:31.730Z,48.07
2019-03-17T08:06:30.692Z,48.16
2019-03-17T08:07:30.698Z,48.16
2019-03-17T08:08:30.929Z,48.07
2019-03-17T08:09:30.727Z,48.07
2019-03-17T08:10:30.645Z,48.36
2019-03-17T08:11:30.632Z,48.36
2019-03-17T08:12:30.631Z,48.04
2019-03-17T08:13:30.612Z,48.16
2019-03-17T08:14:30.626Z,48.07
2019-03-17T08:15:30.653Z,48.07
2019-03-17T08:16:30.580Z,47.86
2019-03-17T08:17:30.578Z,47.84
2019-03-17T08:18:30.567Z,47.74
2019-03-17T08:19:30.615Z,47.46
2019-03-17T08:20:30.557Z,47.74
2019-03-17T08:21:30.522Z,47.34
2019-03-17T08:22:30.527Z,47.24
2019-03-17T08:23:30.508Z,46.94
2019-03-17T08:24:30.492Z,47.34
2019-03-17T08:25:30.512Z,47.14
2019-03-17T08:26:30.478Z,47.14
2019-03-17T08:27:30.454Z,47.54
2019-03-17T08:28:30.478Z,47.34
2019-03-17T08:29:30.470Z,47.14
2019-03-17T08:30:30.461Z,47.24
2019-03-17T08:31:30.448Z,47.64
2019-03-17T08:32:30.412Z,47.24
2019-03-17T08:33:30.416Z,47.24
2019-03-17T08:34:30.402Z,47.64
2019-03-17T08:35:30.409Z,47.34
2019-03-17T08:36:30.395Z,47.34
2019-03-17T08:37:30.377Z,47.04
2019-03-17T08:38:30.405Z,47.34
2019-03-17T08:39:30.340Z,47.34
2019-03-17T08:40:30.333Z,47.24
2019-03-17T08:41:30.336Z,47.44
2019-03-17T08:42:30.313Z,47.24
2019-03-17T08:43:30.312Z,47.44
2019-03-17T08:44:30.381Z,47.74
2019-03-17T08:45:30.276Z,47.74
2019-03-17T08:46:30.267Z,47.54
2019-03-17T08:47:30.267Z,48.04
2019-03-17T08:48:30.238Z,48.14
2019-03-17T08:49:30.222Z,48.34
2019-03-17T08:50:30.210Z,48.16
2019-03-17T08:51:30.463Z,48.36
2019-03-17T08:52:30.286Z,47.94
2019-03-17T08:53:30.182Z,47.94
2019-03-17T08:54:30.183Z,48.24
2019-03-17T08:55:30.163Z,47.74
2019-03-17T08:56:30.150Z,48.14
2019-03-17T08:57:30.204Z,47.94
2019-03-17T08:58:30.130Z,47.64
2019-03-17T08:59:30.128Z,47.74
2019-03-17T09:00:30.105Z,48.04
2019-03-17T09:01:30.109Z,47.64
2019-03-17T09:02:30.083Z,47.54
2019-03-17T09:03:30.105Z,47.54
2019-03-17T09:04:30.087Z,47.54
2019-03-17T09:05:30.073Z,47.34
2019-03-17T09:06:30.061Z,47.54
2019-03-17T09:07:30.050Z,47.24
2019-03-17T09:08:35.328Z,46.94
2019-03-17T09:09:31.010Z,46.81
2019-03-17T09:10:30.099Z,47.02
2019-03-17T09:11:30.020Z,47.24
2019-03-17T09:12:29.986Z,46.81
2019-03-17T09:13:30.006Z,47.22
2019-03-17T09:14:29.963Z,47.42
2019-03-17T09:15:29.997Z,47.31
2019-03-17T09:16:29.973Z,46.99
2019-03-17T09:17:29.925Z,47.61
2019-03-17T09:18:29.916Z,46.59
2019-03-17T09:19:29.925Z,46.59
2019-03-17T09:20:29.940Z,46.62
2019-03-17T09:21:29.950Z,46.62
2019-03-17T09:22:29.893Z,46.59
2019-03-17T09:23:29.883Z,46.59
2019-03-17T09:24:29.895Z,46.42
2019-03-17T09:25:29.856Z,46.42
2019-03-17T09:26:29.840Z,46.51
2019-03-17T09:27:29.830Z,47.19
2019-03-17T09:28:29.818Z,46.59
2019-03-17T09:29:29.829Z,46.59
2019-03-17T09:30:29.788Z,46.59
2019-03-17T09:31:29.790Z,46.62
2019-03-17T09:32:29.791Z,46.59
2019-03-17T09:33:29.783Z,46.89
2019-03-17T09:34:29.739Z,46.59
2019-03-17T09:35:29.754Z,46.50
2019-03-17T09:36:32.324Z,46.69
2019-03-17T09:37:29.712Z,46.59
2019-03-17T09:38:29.716Z,46.59
2019-03-17T09:39:29.691Z,46.69
2019-03-17T09:40:29.706Z,47.49
2019-03-17T09:41:29.677Z,46.80
2019-03-17T09:42:29.656Z,47.39
2019-03-17T09:43:29.666Z,46.50
2019-03-17T09:44:29.638Z,46.59
2019-03-17T09:45:29.642Z,46.59
2019-03-17T09:46:29.625Z,46.69
2019-03-17T09:47:29.616Z,46.80
2019-03-17T09:48:29.634Z,47.19
2019-03-17T09:49:29.592Z,46.59
2019-03-17T09:50:29.573Z,46.62
2019-03-17T09:51:29.569Z,46.39
2019-03-17T09:52:29.558Z,47.30
2019-03-17T09:53:29.544Z,46.59
2019-03-17T09:54:29.658Z,47.11
2019-03-17T09:55:29.528Z,47.39
2019-03-17T09:56:29.553Z,46.81
2019-03-17T09:57:29.512Z,47.31
2019-03-17T09:58:29.516Z,46.81
2019-03-17T09:59:29.478Z,46.69
2019-03-17T10:00:29.532Z,47.11
2019-03-17T10:01:29.461Z,47.31
2019-03-17T10:02:29.465Z,46.72
2019-03-17T10:03:29.469Z,47.31
2019-03-17T10:04:29.429Z,47.11
2019-03-17T10:05:29.474Z,47.22
2019-03-17T10:06:29.475Z,47.39
2019-03-17T10:07:29.392Z,47.61
2019-03-17T10:08:29.404Z,47.22
2019-03-17T10:09:29.391Z,47.02
2019-03-17T10:10:29.362Z,47.11
2019-03-17T10:11:29.353Z,47.31
2019-03-17T10:12:29.444Z,47.31
2019-03-17T10:13:29.429Z,47.02
2019-03-17T10:14:29.360Z,47.11
2019-03-17T10:15:29.322Z,46.72
2019-03-17T10:16:29.331Z,46.81
2019-03-17T10:17:29.322Z,46.81
2019-03-17T10:18:29.307Z,46.81
2019-03-17T10:19:29.303Z,46.72
2019-03-17T10:20:29.282Z,47.02
2019-03-17T10:21:29.250Z,46.72
2019-03-17T10:22:29.274Z,47.02
2019-03-17T10:23:29.248Z,47.02
2019-03-17T10:24:29.248Z,46.92
2019-03-17T10:25:29.214Z,46.81
2019-03-17T10:26:29.213Z,46.92
2019-03-17T10:27:29.199Z,47.31
2019-03-17T10:28:29.212Z,46.92
2019-03-17T10:29:29.183Z,46.72
2019-03-17T10:30:29.237Z,46.92
2019-03-17T10:31:29.139Z,46.81
2019-03-17T10:32:29.127Z,47.14
2019-03-17T10:33:29.159Z,46.92
2019-03-17T10:34:29.185Z,46.72
2019-03-17T10:35:29.102Z,46.62
2019-03-17T10:36:29.088Z,46.72
2019-03-17T10:37:29.086Z,46.81
2019-03-17T10:38:29.094Z,47.22
2019-03-17T10:39:29.404Z,46.81
2019-03-17T10:40:29.053Z,46.92
2019-03-17T10:41:29.042Z,47.11
2019-03-17T10:42:29.032Z,46.81
2019-03-17T10:43:29.108Z,46.62
2019-03-17T10:44:29.030Z,47.52
2019-03-17T10:45:28.991Z,47.42
2019-03-17T10:46:28.994Z,46.92
2019-03-17T10:47:28.981Z,46.92
2019-03-17T10:48:28.972Z,47.11
2019-03-17T10:49:28.980Z,46.92
2019-03-17T10:50:28.968Z,47.31
2019-03-17T10:51:28.977Z,47.61
2019-03-17T10:52:28.947Z,47.52
2019-03-17T10:53:28.919Z,47.61
2019-03-17T10:54:28.899Z,46.62
2019-03-17T10:55:28.911Z,46.59
2019-03-17T10:56:28.885Z,46.50
2019-03-17T10:57:28.907Z,46.72
2019-03-17T10:58:28.898Z,46.69
2019-03-17T10:59:28.844Z,46.69
2019-03-17T11:00:28.872Z,46.69
2019-03-17T11:01:28.830Z,46.81
2019-03-17T11:02:28.835Z,47.09
2019-03-17T11:03:28.808Z,46.89
2019-03-17T11:04:28.796Z,46.89
2019-03-17T11:05:28.807Z,46.80
2019-03-17T11:06:28.775Z,46.89
2019-03-17T11:07:28.878Z,46.50
2019-03-17T11:08:28.754Z,46.80
2019-03-17T11:09:28.763Z,46.99
2019-03-17T11:10:28.764Z,46.59
2019-03-17T11:11:28.775Z,46.39
2019-03-17T11:12:28.745Z,46.30
2019-03-17T11:13:28.727Z,46.39
2019-03-17T11:14:28.742Z,46.39
2019-03-17T11:15:28.687Z,46.07
2019-03-17T11:16:28.840Z,46.80
2019-03-17T11:17:28.723Z,46.59
2019-03-17T11:18:28.743Z,46.30
2019-03-17T11:19:28.652Z,46.07
2019-03-17T11:20:28.625Z,46.19
2019-03-17T11:21:28.656Z,46.09
2019-03-17T11:22:28.601Z,46.59
2019-03-17T11:23:28.606Z,46.50
2019-03-17T11:24:28.582Z,46.30
2019-03-17T11:25:28.587Z,46.80
2019-03-17T11:26:28.585Z,46.69
2019-03-17T11:27:28.641Z,46.50
2019-03-17T11:28:28.546Z,46.80
2019-03-17T11:29:28.597Z,46.30
2019-03-17T11:30:28.528Z,46.30
2019-03-17T11:31:28.711Z,46.00
2019-03-17T11:32:28.605Z,46.09
2019-03-17T11:33:28.507Z,46.59
2019-03-17T11:34:28.827Z,46.69
2019-03-17T11:35:28.503Z,46.30
2019-03-17T11:36:28.457Z,46.69
2019-03-17T11:37:28.506Z,45.89
2019-03-17T11:38:28.431Z,46.69
2019-03-17T11:39:37.141Z,46.80
2019-03-17T11:40:29.457Z,46.69
2019-03-17T11:41:28.423Z,46.59
2019-03-17T11:42:28.412Z,46.19
2019-03-17T11:43:28.439Z,46.30
2019-03-17T11:44:28.427Z,46.80
2019-03-17T11:45:28.386Z,46.57
2019-03-17T11:46:28.379Z,46.50
2019-03-17T11:47:28.453Z,46.67
2019-03-17T11:48:28.393Z,46.80
2019-03-17T11:49:28.322Z,45.97
2019-03-17T11:50:28.424Z,46.19
2019-03-17T11:51:28.499Z,46.97
2019-03-17T11:52:28.366Z,45.17
2019-03-17T11:53:28.385Z,46.07
2019-03-17T11:54:28.277Z,45.27
2019-03-17T11:55:28.304Z,46.07
2019-03-17T11:56:28.299Z,45.97
2019-03-17T11:57:28.245Z,46.39
2019-03-17T11:58:28.229Z,46.67
2019-03-17T11:59:28.442Z,46.37
2019-03-17T12:00:28.212Z,46.19
2019-03-17T12:01:28.314Z,46.59
2019-03-17T12:02:28.267Z,46.77
2019-03-17T12:03:28.268Z,46.89
2019-03-17T12:04:28.172Z,46.80
2019-03-17T12:05:28.170Z,46.89
2019-03-17T12:06:28.183Z,46.69
2019-03-17T12:07:28.192Z,46.39
2019-03-17T12:08:28.299Z,46.57
2019-03-17T12:09:29.498Z,46.89
2019-03-17T12:10:28.117Z,46.80
2019-03-17T12:11:28.125Z,46.80
2019-03-17T12:12:28.342Z,45.79
2019-03-17T12:13:28.077Z,46.59
2019-03-17T12:14:28.067Z,46.69
2019-03-17T12:15:28.069Z,46.09
2019-03-17T12:16:28.144Z,46.80
2019-03-17T12:17:28.058Z,45.20
2019-03-17T12:18:28.091Z,46.50
2019-03-17T12:19:28.015Z,46.59
2019-03-17T12:20:28.018Z,46.69
2019-03-17T12:21:28.022Z,46.19
2019-03-17T12:22:27.981Z,46.89
2019-03-17T12:23:27.971Z,46.09
2019-03-17T12:24:27.993Z,46.80
2019-03-17T12:25:27.942Z,46.89
2019-03-17T12:26:27.932Z,46.69
2019-03-17T12:27:27.950Z,46.69
2019-03-17T12:28:27.931Z,46.69
2019-03-17T12:29:27.909Z,46.50
2019-03-17T12:30:27.934Z,46.80
2019-03-17T12:31:27.952Z,46.09
2019-03-17T12:32:27.940Z,45.59
2019-03-17T12:33:27.896Z,46.30
2019-03-17T12:34:28.724Z,45.20
2019-03-17T12:35:27.860Z,45.89
2019-03-17T12:36:27.904Z,46.50
2019-03-17T12:37:27.983Z,46.30
2019-03-17T12:38:27.892Z,46.30
2019-03-17T12:39:28.048Z,46.50
2019-03-17T12:40:27.866Z,46.50
2019-03-17T12:41:27.787Z,46.59
2019-03-17T12:42:27.777Z,45.59
2019-03-17T12:43:27.787Z,46.39
2019-03-17T12:44:27.760Z,46.69
2019-03-17T12:45:27.771Z,46.09
2019-03-17T12:46:27.774Z,46.27
2019-03-17T12:47:27.773Z,46.69
2019-03-17T12:48:27.812Z,46.59
2019-03-17T12:49:27.792Z,45.29
2019-03-17T12:50:27.729Z,45.97
2019-03-17T12:51:27.671Z,46.50
2019-03-17T12:52:27.731Z,46.57